sensor_id;sensor_type;location;lat;lon;timestamp;P1;durP1;ratioP1;P2;durP2;ratioP2
58338;SDS011;48278;52.704;6.536;2022-12-19T00:01:03;39.13;;;12.25;;
58338;SDS011;48278;52.704;6.536;2022-12-19T00:03:49;36.40;;;12.98;;
58338;SDS011;48278;52.704;6.536;2022-12-19T00:06:19;26.10;;;10.88;;
58338;SDS011;48278;52.704;6.536;2022-12-19T00:08:47;41.30;;;15.77;;
58338;SDS011;48278;52.704;6.536;2022-12-19T00:11:16;33.13;;;12.13;;
58338;SDS011;48278;52.704;6.536;2022-12-19T00:13:43;42.78;;;15.35;;
58338;SDS011;48278;52.704;6.536;2022-12-19T00:16:10;37.60;;;12.88;;
58338;SDS011;48278;52.704;6.536;2022-12-19T00:18:38;34.83;;;12.95;;
58338;SDS011;48278;52.704;6.536;2022-12-19T00:21:05;44.85;;;17.48;;
58338;SDS011;48278;52.704;6.536;2022-12-19T00:23:33;47.85;;;17.02;;
58338;SDS011;48278;52.704;6.536;2022-12-19T00:26:08;42.50;;;17.70;;
58338;SDS011;48278;52.704;6.536;2022-12-19T00:28:40;40.70;;;14.93;;
58338;SDS011;48278;52.704;6.536;2022-12-19T00:31:06;42.35;;;16.65;;
58338;SDS011;48278;52.704;6.536;2022-12-19T00:33:32;40.80;;;15.45;;
58338;SDS011;48278;52.704;6.536;2022-12-19T00:36:03;46.17;;;17.35;;
58338;SDS011;48278;52.704;6.536;2022-12-19T00:38:30;41.40;;;15.57;;
58338;SDS011;48278;52.704;6.536;2022-12-19T00:43:36;42.38;;;15.98;;
58338;SDS011;48278;52.704;6.536;2022-12-19T00:46:06;36.13;;;14.53;;
58338;SDS011;48278;52.704;6.536;2022-12-19T00:48:34;41.08;;;15.32;;
58338;SDS011;48278;52.704;6.536;2022-12-19T00:51:11;40.60;;;14.55;;
58338;SDS011;48278;52.704;6.536;2022-12-19T00:53:38;43.45;;;16.88;;
58338;SDS011;48278;52.704;6.536;2022-12-19T00:56:09;41.95;;;15.00;;
58338;SDS011;48278;52.704;6.536;2022-12-19T00:58:37;40.88;;;16.05;;
58338;SDS011;48278;52.704;6.536;2022-12-19T01:01:04;45.20;;;16.38;;
58338;SDS011;48278;52.704;6.536;2022-12-19T01:03:31;35.72;;;12.98;;
58338;SDS011;48278;52.704;6.536;2022-12-19T01:05:57;41.38;;;15.63;;
58338;SDS011;48278;52.704;6.536;2022-12-19T01:08:23;43.35;;;17.30;;
58338;SDS011;48278;52.704;6.536;2022-12-19T01:10:49;35.97;;;13.00;;
58338;SDS011;48278;52.704;6.536;2022-12-19T01:13:16;43.50;;;15.45;;
58338;SDS011;48278;52.704;6.536;2022-12-19T01:15:44;35.40;;;13.05;;
58338;SDS011;48278;52.704;6.536;2022-12-19T01:18:09;40.33;;;16.20;;
58338;SDS011;48278;52.704;6.536;2022-12-19T01:20:39;45.92;;;16.80;;
58338;SDS011;48278;52.704;6.536;2022-12-19T01:23:06;38.67;;;15.20;;
58338;SDS011;48278;52.704;6.536;2022-12-19T01:25:34;43.88;;;15.93;;
58338;SDS011;48278;52.704;6.536;2022-12-19T01:28:01;41.53;;;15.57;;
58338;SDS011;48278;52.704;6.536;2022-12-19T01:30:28;41.60;;;14.37;;
58338;SDS011;48278;52.704;6.536;2022-12-19T01:32:54;42.10;;;16.55;;
58338;SDS011;48278;52.704;6.536;2022-12-19T01:35:21;45.45;;;15.63;;
58338;SDS011;48278;52.704;6.536;2022-12-19T01:37:46;40.15;;;15.63;;
58338;SDS011;48278;52.704;6.536;2022-12-19T01:40:12;44.75;;;15.45;;
58338;SDS011;48278;52.704;6.536;2022-12-19T01:42:38;40.97;;;15.07;;
58338;SDS011;48278;52.704;6.536;2022-12-19T01:50:59;48.60;;;17.75;;
58338;SDS011;48278;52.704;6.536;2022-12-19T01:53:29;42.58;;;15.70;;
58338;SDS011;48278;52.704;6.536;2022-12-19T01:56:01;38.20;;;13.65;;
58338;SDS011;48278;52.704;6.536;2022-12-19T01:58:29;43.70;;;16.08;;
58338;SDS011;48278;52.704;6.536;2022-12-19T02:00:55;49.67;;;18.52;;
58338;SDS011;48278;52.704;6.536;2022-12-19T02:03:28;40.95;;;14.13;;
58338;SDS011;48278;52.704;6.536;2022-12-19T02:05:56;45.33;;;15.45;;
58338;SDS011;48278;52.704;6.536;2022-12-19T02:08:24;51.58;;;16.92;;
58338;SDS011;48278;52.704;6.536;2022-12-19T02:10:51;52.08;;;20.58;;
58338;SDS011;48278;52.704;6.536;2022-12-19T02:13:17;47.60;;;16.25;;
58338;SDS011;48278;52.704;6.536;2022-12-19T02:18:47;45.78;;;15.57;;
58338;SDS011;48278;52.704;6.536;2022-12-19T02:21:36;42.65;;;16.23;;
58338;SDS011;48278;52.704;6.536;2022-12-19T02:30:01;53.75;;;18.15;;
58338;SDS011;48278;52.704;6.536;2022-12-19T02:32:37;55.28;;;18.88;;
58338;SDS011;48278;52.704;6.536;2022-12-19T02:35:22;43.40;;;16.38;;
58338;SDS011;48278;52.704;6.536;2022-12-19T02:37:55;45.78;;;16.75;;
58338;SDS011;48278;52.704;6.536;2022-12-19T02:40:39;49.88;;;17.83;;
58338;SDS011;48278;52.704;6.536;2022-12-19T02:43:11;55.63;;;19.45;;
58338;SDS011;48278;52.704;6.536;2022-12-19T02:45:39;51.03;;;18.27;;
58338;SDS011;48278;52.704;6.536;2022-12-19T02:48:06;56.92;;;17.80;;
58338;SDS011;48278;52.704;6.536;2022-12-19T02:50:41;59.67;;;20.48;;
58338;SDS011;48278;52.704;6.536;2022-12-19T02:53:09;43.78;;;14.15;;
58338;SDS011;48278;52.704;6.536;2022-12-19T02:55:48;58.53;;;19.92;;
58338;SDS011;48278;52.704;6.536;2022-12-19T03:01:10;59.90;;;21.58;;
58338;SDS011;48278;52.704;6.536;2022-12-19T03:03:54;58.88;;;20.77;;
58338;SDS011;48278;52.704;6.536;2022-12-19T03:09:26;74.10;;;22.98;;
58338;SDS011;48278;52.704;6.536;2022-12-19T03:12:01;66.07;;;21.33;;
58338;SDS011;48278;52.704;6.536;2022-12-19T03:14:32;63.83;;;20.73;;
58338;SDS011;48278;52.704;6.536;2022-12-19T03:17:01;64.38;;;21.70;;
58338;SDS011;48278;52.704;6.536;2022-12-19T03:19:30;61.78;;;20.35;;
58338;SDS011;48278;52.704;6.536;2022-12-19T03:21:56;60.80;;;22.35;;
58338;SDS011;48278;52.704;6.536;2022-12-19T03:24:22;74.65;;;23.33;;
58338;SDS011;48278;52.704;6.536;2022-12-19T03:26:50;59.63;;;21.20;;
58338;SDS011;48278;52.704;6.536;2022-12-19T03:29:39;71.65;;;22.67;;
58338;SDS011;48278;52.704;6.536;2022-12-19T03:32:16;79.65;;;25.92;;
58338;SDS011;48278;52.704;6.536;2022-12-19T03:34:46;70.50;;;22.45;;
58338;SDS011;48278;52.704;6.536;2022-12-19T03:37:14;70.57;;;23.58;;
58338;SDS011;48278;52.704;6.536;2022-12-19T03:39:44;63.65;;;22.25;;
58338;SDS011;48278;52.704;6.536;2022-12-19T03:42:13;75.50;;;24.58;;
58338;SDS011;48278;52.704;6.536;2022-12-19T03:45:02;92.10;;;28.90;;
58338;SDS011;48278;52.704;6.536;2022-12-19T03:47:34;87.25;;;27.00;;
58338;SDS011;48278;52.704;6.536;2022-12-19T03:50:06;83.88;;;25.85;;
58338;SDS011;48278;52.704;6.536;2022-12-19T03:52:35;94.55;;;27.80;;
58338;SDS011;48278;52.704;6.536;2022-12-19T03:55:14;91.78;;;28.65;;
58338;SDS011;48278;52.704;6.536;2022-12-19T03:58:05;68.13;;;21.70;;
58338;SDS011;48278;52.704;6.536;2022-12-19T04:00:39;84.45;;;26.48;;
58338;SDS011;48278;52.704;6.536;2022-12-19T04:03:07;92.47;;;28.05;;
58338;SDS011;48278;52.704;6.536;2022-12-19T04:05:34;94.88;;;30.40;;
58338;SDS011;48278;52.704;6.536;2022-12-19T04:08:03;80.57;;;26.75;;
58338;SDS011;48278;52.704;6.536;2022-12-19T04:10:32;87.00;;;26.15;;
58338;SDS011;48278;52.704;6.536;2022-12-19T04:13:02;91.30;;;27.70;;
58338;SDS011;48278;52.704;6.536;2022-12-19T04:15:57;102.45;;;30.50;;
58338;SDS011;48278;52.704;6.536;2022-12-19T04:18:30;100.07;;;32.08;;
58338;SDS011;48278;52.704;6.536;2022-12-19T04:21:01;90.93;;;28.77;;
58338;SDS011;48278;52.704;6.536;2022-12-19T04:23:36;85.65;;;24.58;;
58338;SDS011;48278;52.704;6.536;2022-12-19T04:26:07;87.78;;;26.52;;
58338;SDS011;48278;52.704;6.536;2022-12-19T04:31:04;77.82;;;24.98;;
58338;SDS011;48278;52.704;6.536;2022-12-19T04:33:31;88.18;;;25.20;;
58338;SDS011;48278;52.704;6.536;2022-12-19T04:35:58;81.70;;;24.90;;
58338;SDS011;48278;52.704;6.536;2022-12-19T04:38:24;86.90;;;27.40;;
58338;SDS011;48278;52.704;6.536;2022-12-19T04:40:51;89.00;;;28.27;;
58338;SDS011;48278;52.704;6.536;2022-12-19T04:43:17;60.10;;;20.95;;
58338;SDS011;48278;52.704;6.536;2022-12-19T04:45:43;86.15;;;25.15;;
58338;SDS011;48278;52.704;6.536;2022-12-19T04:48:08;92.30;;;27.88;;
58338;SDS011;48278;52.704;6.536;2022-12-19T04:50:34;93.60;;;28.33;;
58338;SDS011;48278;52.704;6.536;2022-12-19T04:53:01;93.70;;;28.50;;
58338;SDS011;48278;52.704;6.536;2022-12-19T04:55:26;100.80;;;31.35;;
58338;SDS011;48278;52.704;6.536;2022-12-19T04:57:52;88.15;;;26.15;;
58338;SDS011;48278;52.704;6.536;2022-12-19T05:00:18;90.35;;;27.15;;
58338;SDS011;48278;52.704;6.536;2022-12-19T05:02:44;97.80;;;27.60;;
58338;SDS011;48278;52.704;6.536;2022-12-19T05:05:09;97.80;;;27.00;;
58338;SDS011;48278;52.704;6.536;2022-12-19T05:07:35;99.22;;;27.75;;
58338;SDS011;48278;52.704;6.536;2022-12-19T05:10:01;85.50;;;26.02;;
58338;SDS011;48278;52.704;6.536;2022-12-19T05:12:27;99.55;;;31.20;;
58338;SDS011;48278;52.704;6.536;2022-12-19T05:14:53;96.05;;;28.95;;
58338;SDS011;48278;52.704;6.536;2022-12-19T05:17:19;96.75;;;26.48;;
58338;SDS011;48278;52.704;6.536;2022-12-19T05:19:45;92.25;;;25.60;;
58338;SDS011;48278;52.704;6.536;2022-12-19T05:22:11;93.30;;;26.58;;
58338;SDS011;48278;52.704;6.536;2022-12-19T05:24:37;103.32;;;28.92;;
58338;SDS011;48278;52.704;6.536;2022-12-19T05:27:02;93.13;;;27.58;;
58338;SDS011;48278;52.704;6.536;2022-12-19T05:29:28;98.97;;;28.70;;
58338;SDS011;48278;52.704;6.536;2022-12-19T05:31:54;100.03;;;28.15;;
58338;SDS011;48278;52.704;6.536;2022-12-19T05:34:19;102.90;;;28.08;;
58338;SDS011;48278;52.704;6.536;2022-12-19T05:36:45;99.78;;;28.88;;
58338;SDS011;48278;52.704;6.536;2022-12-19T05:39:11;94.97;;;26.50;;
58338;SDS011;48278;52.704;6.536;2022-12-19T05:41:37;89.82;;;25.70;;
58338;SDS011;48278;52.704;6.536;2022-12-19T05:44:03;79.45;;;23.05;;
58338;SDS011;48278;52.704;6.536;2022-12-19T05:46:28;84.15;;;24.98;;
58338;SDS011;48278;52.704;6.536;2022-12-19T05:48:54;83.07;;;24.75;;
58338;SDS011;48278;52.704;6.536;2022-12-19T05:51:20;75.57;;;23.23;;
58338;SDS011;48278;52.704;6.536;2022-12-19T05:53:46;67.00;;;19.48;;
58338;SDS011;48278;52.704;6.536;2022-12-19T05:56:13;76.88;;;21.95;;
58338;SDS011;48278;52.704;6.536;2022-12-19T05:58:43;72.55;;;23.17;;
58338;SDS011;48278;52.704;6.536;2022-12-19T06:01:20;89.10;;;26.30;;
58338;SDS011;48278;52.704;6.536;2022-12-19T06:03:50;80.72;;;23.45;;
58338;SDS011;48278;52.704;6.536;2022-12-19T06:06:18;85.65;;;25.98;;
58338;SDS011;48278;52.704;6.536;2022-12-19T06:08:46;81.53;;;23.92;;
58338;SDS011;48278;52.704;6.536;2022-12-19T06:11:12;86.57;;;24.65;;
58338;SDS011;48278;52.704;6.536;2022-12-19T06:13:39;99.55;;;28.15;;
58338;SDS011;48278;52.704;6.536;2022-12-19T06:16:06;102.47;;;31.27;;
58338;SDS011;48278;52.704;6.536;2022-12-19T06:18:34;92.88;;;25.48;;
58338;SDS011;48278;52.704;6.536;2022-12-19T06:21:01;89.25;;;23.58;;
58338;SDS011;48278;52.704;6.536;2022-12-19T06:23:29;108.22;;;28.58;;
58338;SDS011;48278;52.704;6.536;2022-12-19T06:25:57;81.28;;;22.60;;
58338;SDS011;48278;52.704;6.536;2022-12-19T06:28:27;85.25;;;23.88;;
58338;SDS011;48278;52.704;6.536;2022-12-19T06:30:54;86.38;;;24.75;;
58338;SDS011;48278;52.704;6.536;2022-12-19T06:33:20;74.40;;;22.65;;
58338;SDS011;48278;52.704;6.536;2022-12-19T06:35:46;86.15;;;22.63;;
58338;SDS011;48278;52.704;6.536;2022-12-19T06:38:12;79.40;;;20.73;;
58338;SDS011;48278;52.704;6.536;2022-12-19T06:40:41;94.03;;;27.08;;
58338;SDS011;48278;52.704;6.536;2022-12-19T06:43:26;78.00;;;21.83;;
58338;SDS011;48278;52.704;6.536;2022-12-19T06:45:52;82.03;;;22.00;;
58338;SDS011;48278;52.704;6.536;2022-12-19T06:48:18;75.72;;;20.13;;
58338;SDS011;48278;52.704;6.536;2022-12-19T06:50:43;83.60;;;22.73;;
58338;SDS011;48278;52.704;6.536;2022-12-19T06:53:09;94.35;;;26.75;;
58338;SDS011;48278;52.704;6.536;2022-12-19T06:55:36;72.80;;;21.30;;
58338;SDS011;48278;52.704;6.536;2022-12-19T06:58:02;92.10;;;25.50;;
58338;SDS011;48278;52.704;6.536;2022-12-19T07:00:28;89.00;;;23.37;;
58338;SDS011;48278;52.704;6.536;2022-12-19T07:02:54;76.38;;;21.27;;
58338;SDS011;48278;52.704;6.536;2022-12-19T07:05:22;76.53;;;21.58;;
58338;SDS011;48278;52.704;6.536;2022-12-19T07:07:48;75.50;;;21.15;;
58338;SDS011;48278;52.704;6.536;2022-12-19T07:10:14;75.57;;;20.35;;
58338;SDS011;48278;52.704;6.536;2022-12-19T07:12:40;76.90;;;20.38;;
58338;SDS011;48278;52.704;6.536;2022-12-19T07:15:06;73.85;;;19.38;;
58338;SDS011;48278;52.704;6.536;2022-12-19T07:17:35;65.68;;;19.33;;
58338;SDS011;48278;52.704;6.536;2022-12-19T07:20:00;68.57;;;18.58;;
58338;SDS011;48278;52.704;6.536;2022-12-19T07:22:28;65.93;;;18.03;;
58338;SDS011;48278;52.704;6.536;2022-12-19T07:24:57;71.68;;;18.23;;
58338;SDS011;48278;52.704;6.536;2022-12-19T07:27:23;70.83;;;19.33;;
58338;SDS011;48278;52.704;6.536;2022-12-19T07:29:49;61.97;;;17.83;;
58338;SDS011;48278;52.704;6.536;2022-12-19T07:32:15;69.65;;;19.08;;
58338;SDS011;48278;52.704;6.536;2022-12-19T07:34:40;75.82;;;20.15;;
58338;SDS011;48278;52.704;6.536;2022-12-19T07:37:06;75.75;;;21.73;;
58338;SDS011;48278;52.704;6.536;2022-12-19T07:39:32;73.10;;;20.33;;
58338;SDS011;48278;52.704;6.536;2022-12-19T07:41:57;64.75;;;18.00;;
58338;SDS011;48278;52.704;6.536;2022-12-19T07:44:23;64.20;;;17.95;;
58338;SDS011;48278;52.704;6.536;2022-12-19T07:46:49;70.75;;;18.00;;
58338;SDS011;48278;52.704;6.536;2022-12-19T07:49:14;73.63;;;22.27;;
58338;SDS011;48278;52.704;6.536;2022-12-19T07:51:40;67.30;;;18.27;;
58338;SDS011;48278;52.704;6.536;2022-12-19T07:54:06;72.43;;;20.95;;
58338;SDS011;48278;52.704;6.536;2022-12-19T07:56:32;65.53;;;17.17;;
58338;SDS011;48278;52.704;6.536;2022-12-19T07:58:57;67.93;;;20.80;;
58338;SDS011;48278;52.704;6.536;2022-12-19T08:01:23;70.90;;;18.42;;
58338;SDS011;48278;52.704;6.536;2022-12-19T08:03:49;64.03;;;17.52;;
58338;SDS011;48278;52.704;6.536;2022-12-19T08:06:15;58.33;;;15.80;;
58338;SDS011;48278;52.704;6.536;2022-12-19T08:08:41;69.38;;;19.02;;
58338;SDS011;48278;52.704;6.536;2022-12-19T08:11:11;60.65;;;16.75;;
58338;SDS011;48278;52.704;6.536;2022-12-19T08:13:38;58.78;;;17.27;;
58338;SDS011;48278;52.704;6.536;2022-12-19T08:16:04;53.78;;;15.70;;
58338;SDS011;48278;52.704;6.536;2022-12-19T08:18:30;64.68;;;18.15;;
58338;SDS011;48278;52.704;6.536;2022-12-19T08:20:56;62.30;;;18.80;;
58338;SDS011;48278;52.704;6.536;2022-12-19T08:23:22;67.78;;;17.58;;
58338;SDS011;48278;52.704;6.536;2022-12-19T08:25:48;62.05;;;19.60;;
58338;SDS011;48278;52.704;6.536;2022-12-19T08:28:14;62.85;;;17.95;;
58338;SDS011;48278;52.704;6.536;2022-12-19T08:30:40;77.75;;;23.02;;
58338;SDS011;48278;52.704;6.536;2022-12-19T08:33:06;69.18;;;18.02;;
58338;SDS011;48278;52.704;6.536;2022-12-19T08:35:32;66.88;;;20.23;;
58338;SDS011;48278;52.704;6.536;2022-12-19T08:37:59;58.03;;;17.33;;
58338;SDS011;48278;52.704;6.536;2022-12-19T08:40:25;62.97;;;17.80;;
58338;SDS011;48278;52.704;6.536;2022-12-19T08:42:51;61.30;;;17.17;;
58338;SDS011;48278;52.704;6.536;2022-12-19T08:45:16;63.50;;;19.52;;
58338;SDS011;48278;52.704;6.536;2022-12-19T08:47:42;68.53;;;19.92;;
58338;SDS011;48278;52.704;6.536;2022-12-19T08:50:09;71.22;;;20.65;;
58338;SDS011;48278;52.704;6.536;2022-12-19T08:52:35;72.82;;;18.98;;
58338;SDS011;48278;52.704;6.536;2022-12-19T08:55:01;66.03;;;19.70;;
58338;SDS011;48278;52.704;6.536;2022-12-19T08:57:28;70.18;;;21.30;;
58338;SDS011;48278;52.704;6.536;2022-12-19T08:59:54;68.22;;;20.33;;
58338;SDS011;48278;52.704;6.536;2022-12-19T09:02:19;76.47;;;20.25;;
58338;SDS011;48278;52.704;6.536;2022-12-19T09:04:46;74.85;;;21.60;;
58338;SDS011;48278;52.704;6.536;2022-12-19T09:07:11;79.47;;;22.58;;
58338;SDS011;48278;52.704;6.536;2022-12-19T09:09:37;67.22;;;20.95;;
58338;SDS011;48278;52.704;6.536;2022-12-19T09:12:03;82.28;;;23.88;;
58338;SDS011;48278;52.704;6.536;2022-12-19T09:14:35;73.97;;;21.52;;
58338;SDS011;48278;52.704;6.536;2022-12-19T09:17:01;83.13;;;22.90;;
58338;SDS011;48278;52.704;6.536;2022-12-19T09:19:27;73.78;;;21.33;;
58338;SDS011;48278;52.704;6.536;2022-12-19T09:21:52;73.30;;;21.10;;
58338;SDS011;48278;52.704;6.536;2022-12-19T09:24:18;72.82;;;22.70;;
58338;SDS011;48278;52.704;6.536;2022-12-19T09:26:44;77.35;;;21.00;;
58338;SDS011;48278;52.704;6.536;2022-12-19T09:29:10;73.55;;;21.55;;
58338;SDS011;48278;52.704;6.536;2022-12-19T09:31:36;71.17;;;23.73;;
58338;SDS011;48278;52.704;6.536;2022-12-19T09:34:02;74.22;;;21.15;;
58338;SDS011;48278;52.704;6.536;2022-12-19T09:36:29;55.45;;;17.23;;
58338;SDS011;48278;52.704;6.536;2022-12-19T09:39:00;68.43;;;22.45;;
58338;SDS011;48278;52.704;6.536;2022-12-19T09:47:09;69.25;;;20.83;;
58338;SDS011;48278;52.704;6.536;2022-12-19T09:49:47;61.75;;;20.25;;
58338;SDS011;48278;52.704;6.536;2022-12-19T09:54:46;60.65;;;19.80;;
58338;SDS011;48278;52.704;6.536;2022-12-19T10:00:09;66.43;;;18.90;;
58338;SDS011;48278;52.704;6.536;2022-12-19T10:07:38;60.25;;;18.25;;
58338;SDS011;48278;52.704;6.536;2022-12-19T10:10:04;66.07;;;20.95;;
58338;SDS011;48278;52.704;6.536;2022-12-19T10:15:26;56.85;;;17.23;;
58338;SDS011;48278;52.704;6.536;2022-12-19T10:20:41;57.25;;;20.83;;
58338;SDS011;48278;52.704;6.536;2022-12-19T10:23:18;52.85;;;18.65;;
58338;SDS011;48278;52.704;6.536;2022-12-19T10:25:58;54.15;;;18.75;;
58338;SDS011;48278;52.704;6.536;2022-12-19T10:31:04;54.05;;;17.73;;
58338;SDS011;48278;52.704;6.536;2022-12-19T10:33:44;47.88;;;16.75;;
58338;SDS011;48278;52.704;6.536;2022-12-19T10:36:17;56.15;;;17.92;;
58338;SDS011;48278;52.704;6.536;2022-12-19T10:38:48;51.80;;;16.88;;
58338;SDS011;48278;52.704;6.536;2022-12-19T10:41:30;49.67;;;16.67;;
58338;SDS011;48278;52.704;6.536;2022-12-19T10:44:01;46.57;;;16.73;;
58338;SDS011;48278;52.704;6.536;2022-12-19T10:49:14;42.72;;;14.88;;
58338;SDS011;48278;52.704;6.536;2022-12-19T10:51:52;53.78;;;17.42;;
58338;SDS011;48278;52.704;6.536;2022-12-19T10:54:35;52.97;;;17.77;;
58338;SDS011;48278;52.704;6.536;2022-12-19T11:05:03;46.10;;;16.40;;
58338;SDS011;48278;52.704;6.536;2022-12-19T11:07:51;48.05;;;17.42;;
58338;SDS011;48278;52.704;6.536;2022-12-19T11:10:40;38.72;;;14.02;;
58338;SDS011;48278;52.704;6.536;2022-12-19T11:13:25;43.28;;;14.90;;
58338;SDS011;48278;52.704;6.536;2022-12-19T11:16:12;52.17;;;16.52;;
58338;SDS011;48278;52.704;6.536;2022-12-19T11:18:46;41.65;;;14.13;;
58338;SDS011;48278;52.704;6.536;2022-12-19T11:26:34;42.33;;;15.05;;
58338;SDS011;48278;52.704;6.536;2022-12-19T11:29:22;49.42;;;16.63;;
58338;SDS011;48278;52.704;6.536;2022-12-19T11:31:52;45.42;;;16.10;;
58338;SDS011;48278;52.704;6.536;2022-12-19T11:34:24;45.08;;;17.63;;
58338;SDS011;48278;52.704;6.536;2022-12-19T11:39:42;39.22;;;15.85;;
58338;SDS011;48278;52.704;6.536;2022-12-19T11:44:44;37.55;;;14.32;;
58338;SDS011;48278;52.704;6.536;2022-12-19T11:50:01;44.10;;;15.05;;
58338;SDS011;48278;52.704;6.536;2022-12-19T11:52:37;43.97;;;15.02;;
58338;SDS011;48278;52.704;6.536;2022-12-19T11:55:24;40.50;;;14.93;;
58338;SDS011;48278;52.704;6.536;2022-12-19T11:58:00;41.08;;;15.77;;
58338;SDS011;48278;52.704;6.536;2022-12-19T12:00:26;42.22;;;15.32;;
58338;SDS011;48278;52.704;6.536;2022-12-19T12:10:58;34.72;;;13.68;;
58338;SDS011;48278;52.704;6.536;2022-12-19T12:13:30;40.05;;;15.40;;
58338;SDS011;48278;52.704;6.536;2022-12-19T12:16:08;44.42;;;14.95;;
58338;SDS011;48278;52.704;6.536;2022-12-19T12:30:08;39.90;;;13.88;;
58338;SDS011;48278;52.704;6.536;2022-12-19T12:32:40;36.17;;;13.82;;
58338;SDS011;48278;52.704;6.536;2022-12-19T12:35:36;39.33;;;17.77;;
58338;SDS011;48278;52.704;6.536;2022-12-19T12:46:02;37.53;;;14.45;;
58338;SDS011;48278;52.704;6.536;2022-12-19T12:48:31;32.13;;;13.68;;
58338;SDS011;48278;52.704;6.536;2022-12-19T12:51:02;37.25;;;15.70;;
58338;SDS011;48278;52.704;6.536;2022-12-19T12:53:36;34.72;;;13.88;;
58338;SDS011;48278;52.704;6.536;2022-12-19T12:56:05;38.35;;;15.32;;
58338;SDS011;48278;52.704;6.536;2022-12-19T13:01:16;33.88;;;13.77;;
58338;SDS011;48278;52.704;6.536;2022-12-19T13:03:53;40.83;;;14.38;;
58338;SDS011;48278;52.704;6.536;2022-12-19T13:06:34;34.97;;;14.25;;
58338;SDS011;48278;52.704;6.536;2022-12-19T13:22:42;31.20;;;13.82;;
58338;SDS011;48278;52.704;6.536;2022-12-19T13:28:37;32.95;;;12.80;;
58338;SDS011;48278;52.704;6.536;2022-12-19T13:42:15;28.92;;;10.95;;
58338;SDS011;48278;52.704;6.536;2022-12-19T13:45:04;30.23;;;11.73;;
58338;SDS011;48278;52.704;6.536;2022-12-19T13:47:35;28.15;;;12.02;;
58338;SDS011;48278;52.704;6.536;2022-12-19T13:50:05;30.05;;;11.95;;
58338;SDS011;48278;52.704;6.536;2022-12-19T13:52:49;24.60;;;10.90;;
58338;SDS011;48278;52.704;6.536;2022-12-19T13:55:15;31.75;;;10.88;;
58338;SDS011;48278;52.704;6.536;2022-12-19T13:57:41;27.33;;;9.77;;
58338;SDS011;48278;52.704;6.536;2022-12-19T14:00:12;27.42;;;12.07;;
58338;SDS011;48278;52.704;6.536;2022-12-19T14:02:46;24.10;;;12.05;;
58338;SDS011;48278;52.704;6.536;2022-12-19T14:05:22;24.17;;;10.60;;
58338;SDS011;48278;52.704;6.536;2022-12-19T14:07:56;24.70;;;10.65;;
58338;SDS011;48278;52.704;6.536;2022-12-19T14:10:24;24.40;;;9.50;;
58338;SDS011;48278;52.704;6.536;2022-12-19T14:12:54;20.52;;;9.18;;
58338;SDS011;48278;52.704;6.536;2022-12-19T14:15:43;27.30;;;10.05;;
58338;SDS011;48278;52.704;6.536;2022-12-19T14:18:20;24.65;;;9.65;;
58338;SDS011;48278;52.704;6.536;2022-12-19T14:23:48;24.42;;;9.93;;
58338;SDS011;48278;52.704;6.536;2022-12-19T14:28:57;24.23;;;8.98;;
58338;SDS011;48278;52.704;6.536;2022-12-19T14:31:27;27.50;;;10.23;;
58338;SDS011;48278;52.704;6.536;2022-12-19T14:33:54;22.85;;;9.30;;
58338;SDS011;48278;52.704;6.536;2022-12-19T14:36:25;23.55;;;10.05;;
58338;SDS011;48278;52.704;6.536;2022-12-19T14:38:56;21.00;;;8.88;;
58338;SDS011;48278;52.704;6.536;2022-12-19T14:44:10;25.42;;;9.65;;
58338;SDS011;48278;52.704;6.536;2022-12-19T14:46:40;27.17;;;9.75;;
58338;SDS011;48278;52.704;6.536;2022-12-19T14:49:23;25.88;;;10.00;;
58338;SDS011;48278;52.704;6.536;2022-12-19T14:51:50;21.65;;;9.75;;
58338;SDS011;48278;52.704;6.536;2022-12-19T14:54:20;26.27;;;10.43;;
58338;SDS011;48278;52.704;6.536;2022-12-19T15:02:08;23.92;;;9.93;;
58338;SDS011;48278;52.704;6.536;2022-12-19T15:07:31;22.85;;;9.82;;
58338;SDS011;48278;52.704;6.536;2022-12-19T15:10:09;25.50;;;10.82;;
58338;SDS011;48278;52.704;6.536;2022-12-19T15:20:53;23.25;;;10.05;;
58338;SDS011;48278;52.704;6.536;2022-12-19T15:23:20;25.02;;;10.25;;
58338;SDS011;48278;52.704;6.536;2022-12-19T15:25:47;22.50;;;9.40;;
58338;SDS011;48278;52.704;6.536;2022-12-19T15:28:16;25.80;;;10.27;;
58338;SDS011;48278;52.704;6.536;2022-12-19T15:30:45;27.60;;;9.48;;
58338;SDS011;48278;52.704;6.536;2022-12-19T15:33:19;23.73;;;11.00;;
58338;SDS011;48278;52.704;6.536;2022-12-19T15:35:45;25.23;;;10.52;;
58338;SDS011;48278;52.704;6.536;2022-12-19T15:38:10;30.38;;;9.45;;
58338;SDS011;48278;52.704;6.536;2022-12-19T15:40:37;26.65;;;10.70;;
58338;SDS011;48278;52.704;6.536;2022-12-19T15:43:04;25.08;;;10.90;;
58338;SDS011;48278;52.704;6.536;2022-12-19T15:45:31;25.20;;;10.75;;
58338;SDS011;48278;52.704;6.536;2022-12-19T15:47:57;26.95;;;10.43;;
58338;SDS011;48278;52.704;6.536;2022-12-19T15:50:24;27.05;;;11.00;;
58338;SDS011;48278;52.704;6.536;2022-12-19T15:52:52;29.65;;;11.38;;
58338;SDS011;48278;52.704;6.536;2022-12-19T15:55:21;27.73;;;11.65;;
58338;SDS011;48278;52.704;6.536;2022-12-19T15:57:54;26.05;;;11.93;;
58338;SDS011;48278;52.704;6.536;2022-12-19T16:00:31;26.50;;;10.88;;
58338;SDS011;48278;52.704;6.536;2022-12-19T16:02:59;25.33;;;10.60;;
58338;SDS011;48278;52.704;6.536;2022-12-19T16:05:25;28.02;;;10.85;;
58338;SDS011;48278;52.704;6.536;2022-12-19T16:07:53;25.98;;;10.57;;
58338;SDS011;48278;52.704;6.536;2022-12-19T16:10:18;26.40;;;11.05;;
58338;SDS011;48278;52.704;6.536;2022-12-19T16:12:49;28.05;;;10.82;;
58338;SDS011;48278;52.704;6.536;2022-12-19T16:15:24;29.52;;;11.77;;
58338;SDS011;48278;52.704;6.536;2022-12-19T16:17:50;26.05;;;10.38;;
58338;SDS011;48278;52.704;6.536;2022-12-19T16:20:21;26.33;;;11.13;;
58338;SDS011;48278;52.704;6.536;2022-12-19T16:22:50;30.92;;;12.93;;
58338;SDS011;48278;52.704;6.536;2022-12-19T16:25:17;27.77;;;12.63;;
58338;SDS011;48278;52.704;6.536;2022-12-19T16:27:43;30.10;;;12.57;;
58338;SDS011;48278;52.704;6.536;2022-12-19T16:30:22;29.75;;;12.13;;
58338;SDS011;48278;52.704;6.536;2022-12-19T16:32:52;31.45;;;13.00;;
58338;SDS011;48278;52.704;6.536;2022-12-19T16:35:19;33.33;;;11.77;;
58338;SDS011;48278;52.704;6.536;2022-12-19T16:37:46;28.20;;;11.57;;
58338;SDS011;48278;52.704;6.536;2022-12-19T16:40:20;29.02;;;11.32;;
58338;SDS011;48278;52.704;6.536;2022-12-19T16:42:48;34.72;;;12.85;;
58338;SDS011;48278;52.704;6.536;2022-12-19T16:45:19;32.20;;;13.63;;
58338;SDS011;48278;52.704;6.536;2022-12-19T16:47:50;33.80;;;12.43;;
58338;SDS011;48278;52.704;6.536;2022-12-19T16:52:42;32.05;;;12.88;;
58338;SDS011;48278;52.704;6.536;2022-12-19T16:55:08;34.65;;;12.93;;
58338;SDS011;48278;52.704;6.536;2022-12-19T16:57:33;32.63;;;12.85;;
58338;SDS011;48278;52.704;6.536;2022-12-19T17:00:00;30.35;;;12.63;;
58338;SDS011;48278;52.704;6.536;2022-12-19T17:05:01;34.53;;;12.38;;
58338;SDS011;48278;52.704;6.536;2022-12-19T17:07:28;30.63;;;12.05;;
58338;SDS011;48278;52.704;6.536;2022-12-19T17:09:55;32.28;;;12.10;;
58338;SDS011;48278;52.704;6.536;2022-12-19T17:12:21;33.30;;;13.45;;
58338;SDS011;48278;52.704;6.536;2022-12-19T17:14:48;30.23;;;12.10;;
58338;SDS011;48278;52.704;6.536;2022-12-19T17:17:14;30.35;;;12.23;;